Greensburg, Indiana
Current Conditions -  °F | °C
As of 9:55 PM on Friday 21 Nov 2014 (Local Time) from KBAK Reporting Station
Scattered Clouds Scattered Clouds  
Wind Chill: 21°   Ceiling: Unl
Heat Index: 27°   Visibility: 10mi
Dew Point: 14°   Wind: 5mph
Humidity: 59%   Direction: 140°SE
Pressure: 30.38"   Gusts: NA
Location:  39.34°N, 85.48°W
Report Text: KBAK 220255Z 14004KT 10SM SCT080 M03/M10 A3038
Loading
Personal Weather Stations






























Interactive Weather Map New forecast layout! Learn more

10-Day Weather Forecast

Advertisements
Track Severe Weather on mobile